Time;durP1;ratioP1;P1;durP2;ratioP2;P2;SDS_P1;SDS_P2;PMS_P1;PMS_P2;Temp;Humidity;BMP_temperature;BMP_pressure;BME280_temperature;BME280_humidity;BME280_pressure;Samples;Min_cycle;Max_cycle;Signal;HPM_P1;HPM_P2
2021/08/07 00:02:01;;;;;;;4.80;1.63;;;;;;;14.06;96.91;94923.25;5020307;28;20251;-74
2021/08/07 00:04:29;;;;;;;3.30;2.40;;;;;;;13.93;96.73;94918.91;5026967;28;20215;-74
2021/08/07 00:06:57;;;;;;;1.90;1.80;;;;;;;13.88;96.66;94916.91;5025825;28;20659;-74
2021/08/07 00:09:27;;;;;;;1.37;1.27;;;;;;;13.85;96.25;94917.38;5018290;28;20219;-74
2021/08/07 00:11:55;;;;;;;2.50;2.20;;;;;;;13.81;96.72;94912.75;5037178;28;20354;-74
2021/08/07 00:14:23;;;;;;;1.20;1.10;;;;;;;13.80;96.75;94922.53;5022252;28;20326;-74
2021/08/07 00:16:53;;;;;;;1.87;1.70;;;;;;;13.81;96.90;94921.50;5019219;28;20239;-74
2021/08/07 00:19:21;;;;;;;0.83;0.83;;;;;;;13.83;96.97;94915.97;5020847;28;20659;-74
2021/08/07 00:21:50;;;;;;;3.17;1.93;;;;;;;13.82;96.98;94917.84;5028842;28;20228;-74
2021/08/07 00:24:17;;;;;;;4.17;2.03;;;;;;;13.74;97.35;94920.78;5020743;28;20256;-74
2021/08/07 00:26:47;;;;;;;2.97;2.00;;;;;;;13.81;97.16;94916.22;5029038;28;20273;-74
2021/08/07 00:29:15;;;;;;;4.40;1.93;;;;;;;13.80;97.20;94909.25;5024368;28;20215;-74
2021/08/07 00:31:43;;;;;;;1.47;1.37;;;;;;;13.81;97.10;94900.31;5008383;28;20306;-74
2021/08/07 00:34:12;;;;;;;1.53;1.50;;;;;;;13.81;97.33;94905.59;5018916;28;20288;-75
2021/08/07 00:36:40;;;;;;;1.33;1.23;;;;;;;13.83;97.51;94900.88;5020336;28;20226;-74
2021/08/07 00:39:09;;;;;;;1.90;1.23;;;;;;;13.85;97.51;94901.47;5020424;28;20585;-74
2021/08/07 00:41:41;;;;;;;2.30;1.57;;;;;;;13.85;97.56;94901.47;5028041;28;20230;-74
2021/08/07 00:44:11;;;;;;;1.20;1.10;;;;;;;13.89;97.59;94902.63;5029685;28;20231;-74
2021/08/07 00:46:44;;;;;;;1.30;1.27;;;;;;;13.89;97.63;94894.66;5011066;28;20235;-74
2021/08/07 00:49:14;;;;;;;1.90;1.67;;;;;;;13.92;97.54;94875.69;5025625;28;20484;-74
2021/08/07 00:51:47;;;;;;;1.53;1.43;;;;;;;13.98;97.52;94878.44;5030218;28;20231;-74
2021/08/07 00:54:19;;;;;;;1.33;1.23;;;;;;;14.02;97.82;94871.69;5034418;28;20302;-74
2021/08/07 00:56:52;;;;;;;2.80;2.60;;;;;;;14.09;97.60;94853.84;5025578;28;20219;-74
2021/08/07 00:59:22;;;;;;;5.13;2.93;;;;;;;14.13;97.49;94855.00;5013924;28;20231;-74
2021/08/07 01:01:56;;;;;;;2.33;2.03;;;;;;;14.17;97.27;94845.53;5004582;28;20438;-74
2021/08/07 01:04:40;;;;;;;1.57;1.47;;;;;;;14.21;97.35;94836.91;5010641;28;20307;-74
2021/08/07 01:07:21;;;;;;;2.00;1.90;;;;;;;14.27;97.42;94839.72;5008948;28;20227;-74
2021/08/07 01:10:01;;;;;;;2.23;2.03;;;;;;;14.29;97.27;94837.63;5004815;28;20227;-74
2021/08/07 01:12:41;;;;;;;1.37;1.27;;;;;;;14.30;97.14;94834.75;4999507;28;20228;-73
2021/08/07 01:15:17;;;;;;;1.63;1.53;;;;;;;14.30;97.26;94850.66;5004868;28;20282;-74
2021/08/07 01:17:48;;;;;;;1.60;1.50;;;;;;;14.32;96.96;94842.47;4998722;28;20289;-74
2021/08/07 01:20:26;;;;;;;2.50;1.93;;;;;;;14.31;96.83;94852.28;5001902;28;20304;-73
2021/08/07 01:23:01;;;;;;;2.53;2.27;;;;;;;14.27;96.91;94855.63;4998376;28;20227;-74
2021/08/07 01:25:42;;;;;;;2.03;1.90;;;;;;;14.24;96.82;94857.69;5005239;28;20216;-71
2021/08/07 01:28:14;;;;;;;2.90;1.37;;;;;;;14.23;96.49;94860.56;5006526;28;20220;-72
2021/08/07 01:30:43;;;;;;;2.90;1.57;;;;;;;14.22;96.20;94856.28;4996122;28;20307;-71
2021/08/07 01:33:11;;;;;;;4.80;1.53;;;;;;;14.16;95.90;94859.84;5009071;28;20849;-71
2021/08/07 01:35:41;;;;;;;1.40;1.27;;;;;;;14.07;95.73;94845.28;5009326;28;20320;-72
2021/08/07 01:38:10;;;;;;;2.03;1.93;;;;;;;14.00;96.22;94826.00;5006132;28;20231;-72
2021/08/07 01:40:47;;;;;;;2.50;2.40;;;;;;;13.93;96.59;94840.16;5002127;28;20752;-72
2021/08/07 01:43:22;;;;;;;4.60;2.20;;;;;;;13.88;97.07;94858.56;5009569;28;20223;-71
2021/08/07 01:45:54;;;;;;;2.30;2.13;;;;;;;13.90;97.10;94866.31;5001929;28;20290;-72
2021/08/07 01:48:34;;;;;;;2.40;1.23;;;;;;;13.86;97.04;94850.03;5005099;28;20216;-71
2021/08/07 01:51:25;;;;;;;1.40;1.17;;;;;;;13.85;97.19;94837.81;5005537;28;20235;-71
2021/08/07 01:54:01;;;;;;;1.47;1.37;;;;;;;13.86;97.25;94834.13;4994355;28;20661;-71
2021/08/07 01:56:37;;;;;;;6.53;1.67;;;;;;;13.92;97.69;94816.50;5009746;28;20252;-71
2021/08/07 01:59:14;;;;;;;2.83;2.23;;;;;;;13.99;97.87;94813.75;4992333;28;20618;-71
2021/08/07 02:01:43;;;;;;;2.17;2.07;;;;;;;14.00;97.85;94823.34;5013999;28;20227;-71
2021/08/07 02:04:21;;;;;;;9.23;3.23;;;;;;;13.98;97.75;94822.75;5038440;28;20222;-72
2021/08/07 02:06:58;;;;;;;3.30;3.10;;;;;;;13.99;97.75;94829.66;5028311;28;20528;-71
2021/08/07 02:09:28;;;;;;;2.17;2.07;;;;;;;14.01;97.81;94830.28;5027573;28;20238;-71
2021/08/07 02:12:00;;;;;;;1.50;1.40;;;;;;;13.98;97.61;94822.75;5024610;28;20710;-71
2021/08/07 02:14:40;;;;;;;3.17;1.57;;;;;;;13.99;97.60;94832.31;5020005;28;20242;-71
2021/08/07 02:17:14;;;;;;;1.23;1.13;;;;;;;13.99;97.94;94827.84;5025408;28;20554;-71
2021/08/07 02:19:43;;;;;;;1.70;1.60;;;;;;;14.03;97.95;94828.19;5024018;28;20234;-72
2021/08/07 02:22:12;;;;;;;1.47;1.37;;;;;;;14.03;97.98;94828.19;5019666;28;20463;-71
2021/08/07 02:24:44;;;;;;;6.30;2.67;;;;;;;14.02;97.57;94818.63;5032598;28;20258;-71
2021/08/07 02:27:23;;;;;;;2.40;2.27;;;;;;;13.98;97.78;94826.22;5027183;28;20268;-70
2021/08/07 02:29:53;;;;;;;2.13;1.93;;;;;;;13.97;97.94;94829.09;5029743;28;20302;-71
2021/08/07 02:32:22;;;;;;;1.93;1.50;;;;;;;13.92;97.77;94817.31;5016742;28;20281;-71
2021/08/07 02:34:58;;;;;;;4.43;2.67;;;;;;;14.00;97.69;94799.47;5017155;28;20232;-71
2021/08/07 02:37:32;;;;;;;4.53;2.20;;;;;;;13.93;97.69;94797.72;5012894;28;20327;-71
2021/08/07 02:40:01;;;;;;;2.90;1.47;;;;;;;13.89;97.68;94796.53;5022333;28;20310;-71
2021/08/07 02:42:35;;;;;;;1.97;1.73;;;;;;;13.87;97.86;94795.97;5034535;28;20504;-71
2021/08/07 02:45:07;;;;;;;2.47;2.27;;;;;;;13.85;98.08;94827.22;5038758;28;20242;-71
2021/08/07 02:47:37;;;;;;;3.37;2.77;;;;;;;13.75;97.87;94824.28;5019579;28;20222;-71
2021/08/07 02:50:08;;;;;;;5.27;2.17;;;;;;;13.61;98.10;94817.50;5020292;28;20258;-71
2021/08/07 02:52:38;;;;;;;3.63;2.93;;;;;;;13.55;98.99;94819.22;5019740;28;20222;-71
2021/08/07 02:55:12;;;;;;;9.87;2.90;;;;;;;13.52;99.24;94821.50;5022867;28;21300;-72
2021/08/07 02:57:40;;;;;;;3.30;1.90;;;;;;;13.38;99.67;94832.28;5014459;28;20221;-71
2021/08/07 03:00:14;;;;;;;2.73;1.47;;;;;;;13.40;99.79;94828.59;5020201;28;20227;-71
2021/08/07 03:02:42;;;;;;;1.77;1.53;;;;;;;13.38;99.58;94821.66;5015476;28;20227;-71
2021/08/07 03:05:10;;;;;;;2.07;1.97;;;;;;;13.40;99.60;94818.78;5030571;28;20228;-71
2021/08/07 03:07:44;;;;;;;2.63;2.43;;;;;;;13.48;99.57;94807.09;5039708;28;20226;-71
2021/08/07 03:10:13;;;;;;;1.90;1.80;;;;;;;13.43;99.58;94801.63;5022961;28;20315;-72
2021/08/07 03:12:42;;;;;;;2.20;1.80;;;;;;;13.44;99.70;94797.94;5025879;28;20219;-71
2021/08/07 03:15:14;;;;;;;1.70;1.60;;;;;;;13.44;99.85;94798.78;5022158;28;20224;-71
2021/08/07 03:17:43;;;;;;;2.93;2.17;;;;;;;13.47;100.00;94794.88;5017640;28;20238;-71
2021/08/07 03:20:13;;;;;;;2.00;1.90;;;;;;;13.49;99.94;94780.34;5021543;28;20254;-71
2021/08/07 03:22:45;;;;;;;1.47;1.37;;;;;;;13.51;99.81;94786.22;5016017;28;20250;-72
2021/08/07 03:25:13;;;;;;;1.40;1.30;;;;;;;13.52;99.79;94789.69;5022096;28;20215;-71
2021/08/07 03:27:43;;;;;;;1.63;1.50;;;;;;;13.52;99.70;94779.09;5021950;28;20215;-72
2021/08/07 03:30:14;;;;;;;1.73;1.63;;;;;;;13.51;99.71;94774.81;5032775;28;20769;-71
2021/08/07 03:32:42;;;;;;;1.70;1.60;;;;;;;13.50;99.88;94786.47;5027299;28;20731;-71
2021/08/07 03:35:11;;;;;;;1.90;1.80;;;;;;;13.50;99.73;94787.25;5023727;28;20619;-71
2021/08/07 03:37:42;;;;;;;3.27;1.20;;;;;;;13.47;99.47;94786.91;5017936;28;20225;-71
2021/08/07 03:40:11;;;;;;;7.37;3.37;;;;;;;13.49;99.25;94795.44;5022671;28;20378;-71
2021/08/07 03:42:44;;;;;;;1.63;1.53;;;;;;;13.45;98.91;94799.59;5017567;28;20227;-71
2021/08/07 03:45:19;;;;;;;13.87;3.20;;;;;;;13.44;98.77;94792.63;5027232;28;20711;-71
2021/08/07 03:47:52;;;;;;;5.50;2.20;;;;;;;13.38;98.95;94792.50;5007837;28;20238;-71
2021/08/07 03:50:25;;;;;;;1.90;1.80;;;;;;;13.35;99.09;94792.97;5015647;28;20261;-73
2021/08/07 03:52:53;;;;;;;2.93;2.00;;;;;;;13.34;99.21;94793.16;5014581;28;20502;-73
2021/08/07 03:55:22;;;;;;;4.33;2.20;;;;;;;13.28;99.36;94799.38;5024119;28;20724;-73
2021/08/07 03:57:53;;;;;;;2.03;1.73;;;;;;;13.27;99.40;94809.16;5026930;28;20239;-74
2021/08/07 04:00:36;;;;;;;3.70;1.53;;;;;;;13.29;99.34;94812.41;5013605;28;20221;-73
2021/08/07 04:03:05;;;;;;;5.27;1.87;;;;;;;13.29;99.16;94812.41;5028906;28;20224;-74
2021/08/07 04:05:34;;;;;;;2.23;1.60;;;;;;;13.32;99.56;94808.47;5037039;28;20214;-74
2021/08/07 04:08:04;;;;;;;1.53;1.17;;;;;;;13.34;99.41;94815.19;5030062;28;20243;-74
2021/08/07 04:10:34;;;;;;;1.60;1.50;;;;;;;13.37;99.40;94801.50;5019749;28;20651;-74
2021/08/07 04:13:02;;;;;;;1.80;1.67;;;;;;;13.42;99.37;94797.38;5022220;28;20227;-73
2021/08/07 04:15:31;;;;;;;5.13;1.53;;;;;;;13.48;99.56;94805.25;5020946;28;20228;-73
2021/08/07 04:18:01;;;;;;;5.37;2.13;;;;;;;13.55;99.76;94811.28;5024013;28;20704;-74
2021/08/07 04:20:29;;;;;;;1.70;1.60;;;;;;;13.59;99.45;94814.28;5024775;28;20304;-73
2021/08/07 04:23:00;;;;;;;3.50;3.20;;;;;;;13.64;99.76;94806.47;5017827;28;20232;-74
2021/08/07 04:25:32;;;;;;;2.27;2.10;;;;;;;13.69;99.46;94806.59;5024813;28;20753;-74
2021/08/07 04:28:00;;;;;;;4.33;2.73;;;;;;;13.77;99.17;94795.69;5020052;28;20227;-74
2021/08/07 04:30:28;;;;;;;3.20;3.00;;;;;;;13.85;99.12;94800.69;5017975;28;20231;-74
2021/08/07 04:33:00;;;;;;;2.93;2.73;;;;;;;13.91;98.77;94806.94;5022617;28;20239;-74
2021/08/07 04:35:31;;;;;;;3.80;2.53;;;;;;;13.96;99.03;94807.06;5023467;28;20303;-74
2021/08/07 04:38:01;;;;;;;3.90;1.80;;;;;;;13.99;98.80;94800.50;5013867;28;20227;-73
2021/08/07 04:40:33;;;;;;;1.43;1.33;;;;;;;14.03;98.96;94791.06;5018353;28;20463;-73
2021/08/07 04:43:09;;;;;;;2.73;1.37;;;;;;;14.08;98.88;94786.69;5030329;28;20238;-74
2021/08/07 04:45:38;;;;;;;2.53;0.97;;;;;;;14.14;99.21;94787.63;5027500;28;20219;-74
2021/08/07 04:48:09;;;;;;;2.03;1.80;;;;;;;14.20;99.20;94782.22;5026691;28;20227;-73
2021/08/07 04:50:44;;;;;;;1.83;1.67;;;;;;;14.28;99.30;94789.06;5036615;28;20318;-73
2021/08/07 04:53:12;;;;;;;2.87;2.23;;;;;;;14.36;99.46;94785.25;5019235;28;20239;-74
2021/08/07 04:55:44;;;;;;;3.33;3.23;;;;;;;14.41;99.35;94778.22;5030649;28;20251;-71
2021/08/07 04:58:14;;;;;;;2.93;2.33;;;;;;;14.48;99.35;94771.00;5020842;28;20258;-71
2021/08/07 05:00:43;;;;;;;3.07;2.30;;;;;;;14.56;99.30;94774.34;5038294;28;20239;-71
2021/08/07 05:03:14;;;;;;;2.53;2.33;;;;;;;14.64;99.29;94771.34;5019062;28;20224;-71
2021/08/07 05:05:44;;;;;;;2.47;2.37;;;;;;;14.72;99.26;94778.94;5042239;28;20304;-71
2021/08/07 05:08:15;;;;;;;3.33;3.03;;;;;;;14.80;99.12;94775.94;5014018;28;20255;-71
2021/08/07 05:10:44;;;;;;;4.20;3.70;;;;;;;14.83;98.91;94764.88;5026979;28;20223;-71
2021/08/07 05:13:12;;;;;;;2.07;1.97;;;;;;;14.90;98.59;94764.75;5027961;28;20227;-71
2021/08/07 05:15:41;;;;;;;14.03;3.20;;;;;;;14.94;98.59;94765.91;5014062;28;20277;-71
2021/08/07 05:18:10;;;;;;;2.90;2.07;;;;;;;14.96;98.54;94763.81;5021680;28;20230;-71
2021/08/07 05:20:40;;;;;;;1.70;1.60;;;;;;;14.98;98.39;94761.72;5038734;28;20282;-71
2021/08/07 05:23:09;;;;;;;1.47;1.43;;;;;;;14.97;98.30;94763.59;5021656;28;20223;-71
2021/08/07 05:25:38;;;;;;;1.97;1.87;;;;;;;14.99;97.97;94758.84;5022434;28;20482;-71
2021/08/07 05:28:07;;;;;;;2.50;2.30;;;;;;;15.01;97.93;94759.44;5026552;28;20224;-71
2021/08/07 05:30:40;;;;;;;7.23;2.27;;;;;;;15.06;98.11;94756.88;5017009;28;20783;-71
2021/08/07 05:33:09;;;;;;;1.47;1.37;;;;;;;15.16;98.07;94763.44;5025191;28;20646;-71
2021/08/07 05:35:41;;;;;;;3.30;2.60;;;;;;;15.35;97.74;94764.91;5024624;28;20885;-71
2021/08/07 05:38:12;;;;;;;2.63;2.53;;;;;;;15.49;97.71;94762.78;5028174;28;20218;-71
2021/08/07 05:40:39;;;;;;;1.90;1.80;;;;;;;15.59;97.32;94763.78;5026541;28;20224;-72
2021/08/07 05:43:07;;;;;;;2.07;1.90;;;;;;;15.66;97.04;94762.88;5024278;28;20247;-71
2021/08/07 05:45:36;;;;;;;1.80;1.70;;;;;;;15.74;97.14;94767.84;5022421;28;20279;-67
2021/08/07 05:48:04;;;;;;;2.23;2.03;;;;;;;15.82;96.72;94762.94;5019590;28;20595;-67
2021/08/07 05:50:36;;;;;;;7.83;4.33;;;;;;;15.94;96.55;94757.56;5036524;28;20229;-67
2021/08/07 05:53:07;;;;;;;3.33;3.13;;;;;;;16.03;94.76;94742.81;5027309;28;20273;-66
2021/08/07 05:55:36;;;;;;;3.30;3.00;;;;;;;16.09;93.98;94747.19;5021464;28;20238;-67
2021/08/07 05:58:05;;;;;;;4.43;4.13;;;;;;;16.14;94.31;94747.25;5035168;28;20242;-67
2021/08/07 06:00:38;;;;;;;3.37;3.17;;;;;;;16.25;94.15;94745.56;5039588;28;20227;-67
2021/08/07 06:03:07;;;;;;;3.50;2.60;;;;;;;16.28;93.79;94744.31;5023815;28;20653;-67
2021/08/07 06:05:40;;;;;;;2.30;2.20;;;;;;;16.36;93.86;94752.66;5035737;28;20314;-67
2021/08/07 06:08:11;;;;;;;2.20;2.10;;;;;;;16.53;93.80;94757.19;5018564;28;20552;-67
2021/08/07 06:10:40;;;;;;;1.93;1.83;;;;;;;16.71;93.47;94755.09;5035365;28;20272;-67
2021/08/07 06:13:08;;;;;;;3.57;3.27;;;;;;;16.87;92.70;94752.69;5044145;28;20215;-67
2021/08/07 06:15:38;;;;;;;3.27;2.77;;;;;;;17.00;91.98;94747.78;5030314;28;20639;-67
2021/08/07 06:18:08;;;;;;;3.47;2.20;;;;;;;17.18;91.49;94754.69;5024934;28;20223;-67
2021/08/07 06:20:40;;;;;;;4.13;3.00;;;;;;;17.32;90.18;94755.16;5024729;28;20735;-66
2021/08/07 06:23:08;;;;;;;2.60;2.40;;;;;;;17.46;88.97;94742.22;5019068;28;20716;-66
2021/08/07 06:25:39;;;;;;;2.93;2.27;;;;;;;17.58;86.75;94742.94;5032857;28;20238;-67
2021/08/07 06:28:08;;;;;;;2.93;2.57;;;;;;;17.61;86.76;94734.41;5031556;28;20234;-67
2021/08/07 06:30:43;;;;;;;2.13;2.00;;;;;;;17.73;87.27;94729.75;5044207;28;20219;-67
2021/08/07 06:33:14;;;;;;;2.70;2.50;;;;;;;17.78;87.29;94737.84;5018019;28;20223;-67
2021/08/07 06:35:42;;;;;;;2.30;2.00;;;;;;;17.85;87.34;94733.13;5022720;28;20211;-67
2021/08/07 06:38:10;;;;;;;1.83;1.73;;;;;;;18.00;86.38;94739.66;5023084;28;20223;-67
2021/08/07 06:40:40;;;;;;;3.53;2.80;;;;;;;18.17;86.02;94735.00;5027005;28;20273;-67
2021/08/07 06:43:12;;;;;;;3.43;2.70;;;;;;;18.38;84.61;94734.13;5034150;28;20849;-67
2021/08/07 06:45:45;;;;;;;4.10;2.07;;;;;;;18.57;84.23;94734.53;5024165;28;20435;-67
2021/08/07 06:48:17;;;;;;;2.00;1.90;;;;;;;18.63;82.69;94735.38;5031498;28;20772;-67
2021/08/07 06:50:45;;;;;;;2.07;1.97;;;;;;;18.70;82.47;94739.47;5024563;28;20870;-67
2021/08/07 06:53:19;;;;;;;3.03;2.73;;;;;;;18.73;82.64;94733.59;5017458;28;20230;-67
2021/08/07 06:55:49;;;;;;;1.17;1.17;;;;;;;18.80;82.82;94738.72;5023058;28;20311;-67
2021/08/07 06:58:18;;;;;;;1.63;1.40;;;;;;;18.87;82.30;94741.19;5017408;28;20752;-67
2021/08/07 07:00:47;;;;;;;2.27;1.43;;;;;;;18.90;82.09;94741.47;5000927;28;20232;-67
2021/08/07 07:03:15;;;;;;;1.77;1.67;;;;;;;18.96;82.41;94743.13;4997550;28;20221;-67
2021/08/07 07:05:46;;;;;;;2.17;1.67;;;;;;;19.18;80.27;94744.84;5004042;28;20216;-67
2021/08/07 07:08:14;;;;;;;1.40;1.30;;;;;;;19.47;80.15;94735.34;4996827;28;20232;-67
2021/08/07 07:10:43;;;;;;;5.73;1.80;;;;;;;19.60;79.07;94737.56;4995259;28;20710;-67
2021/08/07 07:13:12;;;;;;;2.03;1.90;;;;;;;19.73;78.98;94735.47;5005407;28;20236;-67
2021/08/07 07:15:40;;;;;;;1.60;1.50;;;;;;;19.79;77.45;94729.06;5025036;28;20223;-67
2021/08/07 07:18:08;;;;;;;1.20;0.83;;;;;;;19.92;78.12;94728.53;5023062;28;20251;-67
2021/08/07 07:20:37;;;;;;;2.60;2.40;;;;;;;19.98;77.17;94732.84;5020417;28;20220;-67
2021/08/07 07:23:09;;;;;;;2.93;1.60;;;;;;;20.16;77.02;94735.00;5000382;28;20295;-68
2021/08/07 07:25:40;;;;;;;1.70;1.33;;;;;;;20.30;73.45;94729.13;5031782;28;20255;-67
2021/08/07 07:28:08;;;;;;;1.33;1.23;;;;;;;20.32;72.45;94732.38;5031461;28;20229;-67
2021/08/07 07:30:38;;;;;;;2.20;1.63;;;;;;;20.31;72.50;94723.53;5044233;28;20741;-67
2021/08/07 07:33:07;;;;;;;3.17;1.57;;;;;;;20.33;73.46;94725.94;5022666;28;20314;-67
2021/08/07 07:35:35;;;;;;;1.30;1.30;;;;;;;20.35;73.65;94711.19;5023136;28;20230;-67
2021/08/07 07:38:03;;;;;;;3.87;2.13;;;;;;;20.45;73.48;94721.94;5010151;28;20219;-66
2021/08/07 07:40:31;;;;;;;3.90;1.53;;;;;;;20.60;72.33;94718.44;5023623;28;20797;-67
2021/08/07 07:43:00;;;;;;;1.40;1.27;;;;;;;20.74;72.15;94714.13;5008572;28;20241;-67
2021/08/07 07:45:28;;;;;;;1.43;1.40;;;;;;;21.08;72.07;94721.59;5019089;28;20358;-67
2021/08/07 07:48:01;;;;;;;1.33;1.23;;;;;;;21.41;70.51;94722.06;5021576;28;20231;-67
2021/08/07 07:50:30;;;;;;;1.57;1.13;;;;;;;21.66;69.36;94713.88;5036328;28;20685;-67
2021/08/07 07:52:59;;;;;;;1.97;1.70;;;;;;;21.84;67.40;94709.75;5008334;28;20220;-67
2021/08/07 07:55:29;;;;;;;1.83;1.73;;;;;;;22.02;68.21;94711.00;5012388;28;20223;-67
2021/08/07 07:57:59;;;;;;;1.93;1.83;;;;;;;22.06;66.41;94706.69;5022083;28;20277;-67
2021/08/07 08:00:30;;;;;;;1.57;1.47;;;;;;;22.26;67.52;94695.81;5013947;28;20238;-67
2021/08/07 08:03:02;;;;;;;8.23;2.80;;;;;;;22.41;65.44;94682.25;5020467;28;20355;-67
2021/08/07 08:05:43;;;;;;;2.60;1.60;;;;;;;22.41;65.34;94693.00;5022389;28;20234;-67
2021/08/07 08:08:11;;;;;;;1.10;1.00;;;;;;;22.45;65.52;94695.13;5015048;28;20235;-67
2021/08/07 08:10:40;;;;;;;3.07;1.20;;;;;;;22.35;65.79;94696.00;5017563;28;20219;-67
2021/08/07 08:13:12;;;;;;;1.60;1.30;;;;;;;22.51;65.58;94699.38;5026274;28;20218;-68
2021/08/07 08:15:41;;;;;;;2.33;2.13;;;;;;;22.64;66.14;94698.72;5014132;28;20720;-67
2021/08/07 08:18:12;;;;;;;1.27;1.27;;;;;;;22.79;64.86;94703.16;5010013;28;20228;-68
2021/08/07 08:20:42;;;;;;;1.07;1.03;;;;;;;22.92;64.43;94703.31;5035709;28;20933;-67
2021/08/07 08:23:10;;;;;;;1.53;1.40;;;;;;;23.09;65.35;94694.81;5020567;28;20246;-68
2021/08/07 08:25:39;;;;;;;4.77;1.40;;;;;;;23.34;64.35;94699.13;5026013;28;20219;-67
2021/08/07 08:28:08;;;;;;;1.70;1.50;;;;;;;23.62;63.96;94680.50;5028472;28;20223;-67
2021/08/07 08:30:39;;;;;;;1.20;1.10;;;;;;;23.73;63.25;94690.03;5022218;28;20218;-68
2021/08/07 08:33:09;;;;;;;1.07;1.07;;;;;;;23.74;61.60;94687.06;5022692;28;20219;-68
2021/08/07 08:35:41;;;;;;;3.23;2.90;;;;;;;23.73;62.64;94681.97;5018543;28;20720;-68
2021/08/07 08:38:10;;;;;;;0.77;0.77;;;;;;;23.75;61.63;94677.06;5022562;28;20222;-67
2021/08/07 08:40:38;;;;;;;1.20;1.20;;;;;;;23.71;60.60;94682.25;5030990;28;20242;-67
2021/08/07 08:43:06;;;;;;;1.57;1.50;;;;;;;23.64;60.47;94676.41;5027601;28;20230;-67
2021/08/07 08:45:34;;;;;;;0.90;0.90;;;;;;;23.64;60.47;94664.84;5024876;28;20277;-67
2021/08/07 08:48:03;;;;;;;3.07;2.40;;;;;;;23.67;60.50;94658.88;5023168;28;20219;-67
2021/08/07 08:50:32;;;;;;;1.55;1.40;;;;;;;23.78;60.65;94661.16;5000132;28;20905;-68
2021/08/07 08:53:03;;;;;;;1.60;1.20;;;;;;;23.97;60.79;94647.66;5002999;28;20224;-68
2021/08/07 08:55:32;;;;;;;0.90;0.90;;;;;;;24.18;60.17;94658.94;5015659;28;20307;-68
2021/08/07 08:58:05;;;;;;;1.83;1.73;;;;;;;24.35;58.97;94653.03;5032953;28;20215;-68
2021/08/07 09:00:33;;;;;;;1.50;1.10;;;;;;;24.48;57.23;94652.25;5025747;28;20223;-68
2021/08/07 09:03:02;;;;;;;1.10;0.82;;;;;;;24.63;57.68;94665.50;5021216;28;20230;-68
2021/08/07 09:05:32;;;;;;;2.63;0.90;;;;;;;24.91;58.29;94665.56;5023493;28;20246;-68
2021/08/07 09:08:02;;;;;;;1.25;1.25;;;;;;;25.04;57.65;94658.59;5020286;28;20216;-68
2021/08/07 09:10:30;;;;;;;0.73;0.73;;;;;;;25.15;56.32;94666.22;5035114;28;20254;-67
2021/08/07 09:13:03;;;;;;;2.40;1.08;;;;;;;25.16;56.14;94667.00;5037824;28;20226;-67
2021/08/07 09:15:36;;;;;;;1.48;1.38;;;;;;;25.29;56.28;94663.50;5041355;28;20975;-67
2021/08/07 09:18:23;;;;;;;1.77;1.00;;;;;;;25.31;56.29;94666.69;5025523;28;20246;-68
2021/08/07 09:21:12;;;;;;;1.65;1.55;;;;;;;25.16;56.04;94650.81;5006637;28;20593;-67
2021/08/07 09:23:44;;;;;;;1.65;1.55;;;;;;;25.21;57.11;94648.78;5017062;28;20223;-68
2021/08/07 09:26:20;;;;;;;1.00;0.90;;;;;;;25.26;57.26;94644.41;5025409;28;20235;-67
2021/08/07 09:28:54;;;;;;;0.88;0.88;;;;;;;25.30;57.13;94640.00;5038327;28;20223;-67
2021/08/07 09:31:26;;;;;;;1.10;1.00;;;;;;;25.27;56.22;94640.59;5032933;28;20230;-67
2021/08/07 09:34:16;;;;;;;1.88;1.77;;;;;;;25.30;57.02;94629.19;5022348;28;20230;-67
2021/08/07 09:36:46;;;;;;;2.78;1.23;;;;;;;25.15;56.71;94633.81;5020647;28;20225;-67
2021/08/07 09:39:34;;;;;;;1.55;1.35;;;;;;;25.10;57.76;94646.59;5029643;28;20277;-67
2021/08/07 09:42:04;;;;;;;0.88;0.70;;;;;;;25.11;58.54;94638.19;5024563;28;20227;-68
2021/08/07 09:44:36;;;;;;;1.15;1.15;;;;;;;25.27;57.78;94629.81;5018413;28;20216;-67
2021/08/07 09:47:08;;;;;;;1.52;0.98;;;;;;;25.30;57.61;94629.19;5026326;28;20227;-67
2021/08/07 09:49:39;;;;;;;1.30;1.10;;;;;;;25.32;56.90;94629.69;5006111;28;20220;-67
2021/08/07 09:52:09;;;;;;;0.73;0.73;;;;;;;25.43;58.98;94631.88;5001455;28;20446;-68
2021/08/07 09:54:40;;;;;;;2.17;1.10;;;;;;;25.79;60.29;94625.75;5012427;28;20216;-68
2021/08/07 09:57:11;;;;;;;1.70;1.30;;;;;;;26.18;58.13;94622.38;5004891;28;20232;-68
2021/08/07 09:59:47;;;;;;;1.05;1.05;;;;;;;26.45;57.26;94624.19;5002481;28;20529;-67
2021/08/07 10:02:20;;;;;;;1.27;1.17;;;;;;;26.44;55.76;94613.69;5020374;28;20724;-68
2021/08/07 10:04:52;;;;;;;3.72;1.40;;;;;;;26.40;55.22;94612.69;5025839;28;20223;-67
2021/08/07 10:07:20;;;;;;;2.40;0.93;;;;;;;26.20;55.50;94609.34;5013198;28;20224;-68
2021/08/07 10:10:00;;;;;;;1.83;1.75;;;;;;;26.11;56.18;94616.59;5016406;28;20591;-68
2021/08/07 10:12:29;;;;;;;3.08;2.63;;;;;;;26.01;56.52;94622.25;5019016;28;21233;-68
2021/08/07 10:15:02;;;;;;;3.20;1.10;;;;;;;25.92;55.49;94615.97;5025326;28;20302;-68
2021/08/07 10:17:31;;;;;;;2.90;1.15;;;;;;;25.75;56.18;94614.72;5015290;28;20232;-68
2021/08/07 10:19:59;;;;;;;2.00;1.15;;;;;;;25.63;55.52;94617.13;5005480;28;20358;-68
2021/08/07 10:22:32;;;;;;;2.17;1.10;;;;;;;25.45;56.32;94626.97;5015265;28;20224;-68
2021/08/07 10:25:06;;;;;;;2.47;1.65;;;;;;;25.45;57.98;94620.78;5026660;28;20805;-67
2021/08/07 10:27:36;;;;;;;1.10;1.10;;;;;;;25.34;57.63;94608.59;5035523;28;20227;-68
2021/08/07 10:30:11;;;;;;;0.60;0.60;;;;;;;25.27;57.60;94610.91;5044958;28;20226;-68
2021/08/07 10:32:44;;;;;;;2.35;1.23;;;;;;;25.19;57.26;94618.59;5022263;28;20486;-67
2021/08/07 10:35:14;;;;;;;1.13;1.02;;;;;;;25.12;57.68;94617.41;5025229;28;20277;-68
2021/08/07 10:37:44;;;;;;;1.98;1.75;;;;;;;25.11;57.67;94608.50;5022065;28;20210;-67
2021/08/07 10:40:14;;;;;;;1.13;1.13;;;;;;;25.07;57.08;94604.81;5040527;28;20230;-68
2021/08/07 10:42:46;;;;;;;1.80;1.52;;;;;;;25.03;58.32;94608.41;5023455;28;20303;-68
2021/08/07 10:45:16;;;;;;;1.42;1.33;;;;;;;25.02;58.63;94610.28;5022993;28;20219;-68
2021/08/07 10:47:45;;;;;;;1.60;1.17;;;;;;;24.90;57.72;94615.38;5016619;28;20577;-68
2021/08/07 10:50:35;;;;;;;4.13;1.02;;;;;;;24.65;58.62;94616.63;5024719;28;20223;-68
2021/08/07 10:53:35;;;;;;;0.93;0.93;;;;;;;24.48;58.65;94619.91;5015475;28;20273;-68
2021/08/07 10:56:05;;;;;;;0.80;0.77;;;;;;;24.44;59.04;94601.94;5024527;28;20693;-68
2021/08/07 10:58:37;;;;;;;1.15;1.15;;;;;;;24.42;59.93;94598.72;5033947;28;20228;-68
2021/08/07 11:01:30;;;;;;;2.10;1.25;;;;;;;24.45;59.06;94593.53;5043496;28;20664;-68
2021/08/07 11:04:23;;;;;;;1.42;1.33;;;;;;;24.63;60.31;94592.66;5021540;28;20228;-68
2021/08/07 11:06:55;;;;;;;4.63;1.63;;;;;;;24.80;59.08;94592.09;5015448;28;20227;-67
2021/08/07 11:09:28;;;;;;;0.70;0.70;;;;;;;24.94;58.72;94586.66;5021770;28;20249;-68
2021/08/07 11:12:21;;;;;;;1.45;0.88;;;;;;;25.05;59.24;94596.19;5024852;28;20802;-69
2021/08/07 11:14:54;;;;;;;1.98;1.40;;;;;;;25.03;58.42;94593.00;5025144;28;20226;-68
2021/08/07 11:17:32;;;;;;;2.35;2.15;;;;;;;25.01;58.70;94597.88;5025504;28;20220;-68
2021/08/07 11:20:04;;;;;;;2.72;1.75;;;;;;;24.99;59.03;94591.97;5025157;28;20396;-68
2021/08/07 11:23:08;;;;;;;1.33;1.25;;;;;;;24.89;57.87;94592.97;5019412;28;20236;-68
2021/08/07 11:26:04;;;;;;;0.85;0.85;;;;;;;24.85;58.74;94591.16;5027948;28;20273;-68
2021/08/07 11:29:01;;;;;;;1.30;1.23;;;;;;;24.91;61.42;94579.97;5024730;28;20243;-68
2021/08/07 11:31:29;;;;;;;1.25;1.15;;;;;;;24.98;62.90;94592.28;5019164;28;20216;-69
2021/08/07 11:34:27;;;;;;;1.60;1.50;;;;;;;24.98;63.69;94579.59;5019709;28;20693;-68
2021/08/07 11:37:13;;;;;;;1.95;1.38;;;;;;;24.95;61.96;94563.97;5012743;28;20375;-67
2021/08/07 11:40:07;;;;;;;1.10;1.10;;;;;;;25.10;61.18;94554.81;5022668;28;20808;-70
2021/08/07 11:42:38;;;;;;;1.02;0.98;;;;;;;25.26;59.70;94544.50;5022500;28;20227;-67
2021/08/07 11:45:15;;;;;;;1.10;1.00;;;;;;;25.47;59.98;94535.63;5019272;28;20235;-68
2021/08/07 11:47:45;;;;;;;1.08;0.88;;;;;;;25.65;61.39;94541.97;5016722;28;20735;-68
2021/08/07 11:50:14;;;;;;;0.88;0.88;;;;;;;25.78;60.93;94527.63;5031243;28;20594;-67
2021/08/07 11:52:42;;;;;;;1.13;1.02;;;;;;;25.80;61.22;94528.13;5014871;28;20262;-68
2021/08/07 11:55:11;;;;;;;0.82;0.82;;;;;;;25.84;61.59;94531.00;5024496;28;20232;-68
2021/08/07 11:57:40;;;;;;;0.93;0.93;;;;;;;25.85;62.10;94531.81;5027224;28;20214;-68